Seiyu Maru — JD3189 — position and weather

sailwx.info

Track history (hours):
 
Tides and Currents Weather Stations Pressure Air Temp Water Temp Dewpoint Dewpoint Depression Visibility Wind Speed Wind Dir Waves Ship Positions

Seiyu Maru

Last reported at 2018-May-20 04:46 UTC. Time now 2018-May-20 15:26 UTC.
Position N 34°31' E 135°24'.

Length 75 m; draft 4.5 m.

Type: Cargo ship. MMSI: 431002433.

Date/timePositionNaut miles runAvg speedWind from/ knotsBaromVisibWave heightAir tempDewpointWater temp
2018-May-20 04:46N 34°31' E 135°24'0 1.6
2018-May-20 04:30N 34°31' E 135°23'4 9.0
2018-May-20 04:00N 34°33' E 135°19'510.6
2018-May-20 03:30N 34°34' E 135°12'510.5
2018-May-20 03:00N 34°35' E 135°06'5 9.4
2018-May-20 02:30N 34°37' E 135°01'7 8.9
2018-May-20 01:44N 34°35' E 134°53'2 9.5
2018-May-20 01:30N 34°34' E 134°51'1110.2
2018-May-20 00:22N 34°30' E 134°38'411.2
2018-May-20 00:00N 34°28' E 134°33'9 0.3
2018-May-18 11:39N 34°25' E 134°22'212.5
2018-May-18 11:30N 34°26' E 134°24'612.1
2018-May-18 11:00N 34°28' E 134°31'612.1
2018-May-18 10:30N 34°31' E 134°38'612.3
2018-May-18 10:00N 34°33' E 134°45'611.9
2018-May-18 09:30N 34°35' E 134°51'611.0
2018-May-18 08:59N 34°37' E 134°58'4 9.0
2018-May-18 08:30N 34°36' E 135°03'5 9.6
2018-May-18 08:00N 34°36' E 135°09'611.4
2018-May-18 07:30N 34°37' E 135°16'611.1
2018-May-18 07:00N 34°38' E 135°22'5 7.1
2018-May-18 06:22N 34°39' E 135°28'0 0.0
2018-May-18 06:00N 34°39' E 135°28'0 0.0
2018-May-18 05:26N 34°39' E 135°28'0 0.0
2018-May-18 04:56N 34°39' E 135°28'0 0.0
2018-May-18 04:26N 34°39' E 135°28'0 0.0
2018-May-18 03:50N 34°39' E 135°28'0 0.0
2018-May-18 03:14N 34°39' E 135°28'0 0.0
2018-May-18 02:56N 34°39' E 135°28'0 0.0
2018-May-18 02:08N 34°39' E 135°28'0 0.0
2018-May-18 01:56N 34°39' E 135°28'0 0.0
2018-May-18 01:26N 34°39' E 135°28'0 0.0
2018-May-18 00:50N 34°39' E 135°28'0 0.0
2018-May-18 00:20N 34°39' E 135°28'0 0.0
2018-May-17 23:47N 34°39' E 135°28'0 0.0
2018-May-17 23:28N 34°39' E 135°28'0 0.0
2018-May-17 23:00N 34°39' E 135°28'2 4.9
2018-May-17 22:30N 34°39' E 135°25'5 9.2
2018-May-17 22:00N 34°34' E 135°22'4 8.3
2018-May-17 21:30N 34°31' E 135°24'0 0.0
2018-May-16 01:37N 34°31' E 135°24'1 3.4
2018-May-16 01:20N 34°32' E 135°24'310.0
2018-May-16 01:00N 34°33' E 135°21'611.0
2018-May-16 00:30N 34°34' E 135°14'510.8
2018-May-16 00:00N 34°35' E 135°08'5 9.6
2018-May-15 23:30N 34°36' E 135°02'8 8.0
2018-May-15 22:27N 34°34' E 134°52'4 9.5
2018-May-15 22:00N 34°32' E 134°47'510.4
2018-May-15 21:30N 34°31' E 134°42'611.0
2018-May-15 21:00N 34°28' E 134°35'611.6
2018-May-15 20:30N 34°26' E 134°29'611.1
2018-May-15 19:58N 34°24' E 134°22'7711.1
2018-May-15 12:59N 34°07' E 132°51'612.7
2018-May-15 12:29N 34°02' E 132°46'613.5
2018-May-15 12:00N 33°57' E 132°42'913.1
2018-May-15 11:20N 33°51' E 132°34'512.3
2018-May-15 10:54N 33°48' E 132°28'612.5
2018-May-15 10:27N 33°45' E 132°22'712.3
2018-May-15 09:54N 33°43' E 132°14'512.1
2018-May-15 09:30N 33°42' E 132°09'611.1
2018-May-15 09:00N 33°42' E 132°02'910.5
2018-May-15 08:11N 33°44' E 131°52'210.5
2018-May-15 07:57N 33°45' E 131°49'510.5
2018-May-15 07:30N 33°46' E 131°44'510.6
2018-May-15 07:00N 33°47' E 131°38'510.9
2018-May-15 06:30N 33°48' E 131°31'611.2
2018-May-15 06:00N 33°49' E 131°25'611.4
2018-May-15 05:30N 33°50' E 131°18'611.7
2018-May-15 05:00N 33°52' E 131°11'612.0
2018-May-15 04:30N 33°55' E 131°05'611.7
2018-May-15 04:00N 33°58' E 130°59'611.4
2018-May-15 03:30N 33°54' E 130°55'3 5.3
2018-May-15 03:00N 33°55' E 130°52'0 0.0
2018-May-15 02:30N 33°55' E 130°52'0 0.0
2018-May-15 01:57N 33°55' E 130°52'0 0.0
2018-May-15 01:30N 33°55' E 130°52'0 0.0
2018-May-15 01:00N 33°55' E 130°52'0 0.0
2018-May-15 00:30N 33°55' E 130°52'1 1.8
2018-May-15 00:00N 33°55' E 130°53'1 1.8
2018-May-14 23:30N 33°56' E 130°54'0 0.0
2018-May-14 22:57N 33°56' E 130°54'0 0.1
2018-May-14 22:30N 33°56' E 130°53'0 0.0
2018-May-14 22:00N 33°56' E 130°53'0 0.1
2018-May-14 21:30N 33°56' E 130°53'0 0.1
2018-May-14 20:51N 33°56' E 130°54'0 0.0
2018-May-14 20:24N 33°56' E 130°54'0 0.0
2018-May-14 19:57N 33°56' E 130°54'0 0.1
2018-May-14 19:30N 33°56' E 130°54'0 0.1
2018-May-14 18:57N 33°56' E 130°54'0 0.0
2018-May-14 18:30N 33°56' E 130°54'0 0.0
2018-May-14 17:57N 33°56' E 130°54'0 0.0
2018-May-14 17:27N 33°56' E 130°54'0 0.0
2018-May-14 17:00N 33°56' E 130°54'0 0.0
2018-May-14 16:30N 33°56' E 130°54'0 0.0
2018-May-14 16:00N 33°56' E 130°54'0 0.0
2018-May-14 15:30N 33°56' E 130°54'0 0.0
2018-May-14 15:00N 33°56' E 130°54'0 0.0
2018-May-14 14:30N 33°56' E 130°54'0 0.0
2018-May-14 13:57N 33°56' E 130°54'0 0.0
2018-May-14 13:30N 33°56' E 130°54'0 0.1
2018-May-14 13:00N 33°56' E 130°54'0 0.0
2018-May-14 12:30N 33°56' E 130°54'0 0.0
2018-May-14 11:54N 33°56' E 130°54'2 4.2
2018-May-14 11:30N 33°54' E 130°55'612.7
2018-May-14 11:00N 33°59' E 131°00'611.8
2018-May-14 10:31N 33°55' E 131°06'611.7
2018-May-14 10:01N 33°52' E 131°12'611.4
2018-May-14 09:31N 33°51' E 131°19'611.3
2018-May-14 09:00N 33°50' E 131°26'611.3
2018-May-14 08:31N 33°49' E 131°32'711.5
2018-May-14 07:55N 33°48' E 131°40'511.6
2018-May-14 07:31N 33°47' E 131°46'611.5
2018-May-14 06:59N 33°46' E 131°53'23 9.4
2018-May-14 04:31N 34°01' E 132°14'111.1
2018-May-14 04:25N 34°02' E 132°15'511.0
2018-May-14 04:01N 34°06' E 132°17'611.2
2018-May-14 03:30N 34°11' E 132°20'611.4
2018-May-14 03:00N 34°17' E 132°21'5 9.5
2018-May-14 02:31N 34°20' E 132°26'2 3.4
2018-May-14 02:01N 34°21' E 132°27'0 0.0
2018-May-14 01:31N 34°21' E 132°27'0 0.1
2018-May-14 01:00N 34°21' E 132°27'0 0.1
2018-May-14 00:31N 34°21' E 132°27'0 0.0
2018-May-14 00:01N 34°21' E 132°27'0 0.0
2018-May-13 23:31N 34°21' E 132°27'0 0.0
2018-May-13 23:00N 34°21' E 132°27'0 0.0
2018-May-13 22:31N 34°21' E 132°27'0 0.0
2018-May-13 22:01N 34°21' E 132°27'0 0.0
2018-May-13 21:31N 34°21' E 132°27'0 0.0
2018-May-13 21:00N 34°21' E 132°27'0 0.0
2018-May-13 20:31N 34°21' E 132°27'0 0.0
2018-May-13 20:00N 34°21' E 132°27'0 0.0
2018-May-13 19:30N 34°21' E 132°27'0 0.0
2018-May-13 19:01N 34°21' E 132°27'0 0.0
2018-May-13 18:28N 34°21' E 132°27'0 0.0
2018-May-13 18:01N 34°21' E 132°27'0 0.0
2018-May-13 17:30N 34°21' E 132°27'0 0.0
2018-May-13 17:01N 34°21' E 132°27'0 0.0
2018-May-13 16:30N 34°21' E 132°27'0 0.0
2018-May-13 16:00N 34°21' E 132°27'0 0.0
2018-May-13 15:30N 34°21' E 132°27'0 0.0
2018-May-13 15:00N 34°21' E 132°27'0 0.0
2018-May-13 14:31N 34°21' E 132°27'0 0.0
2018-May-13 14:01N 34°21' E 132°27'0 0.0
2018-May-13 13:30N 34°21' E 132°27'0 0.0
2018-May-13 13:01N 34°21' E 132°27'0 0.0
2018-May-13 12:27N 34°21' E 132°27'0 0.0
2018-May-13 12:01N 34°21' E 132°27'0 0.0
2018-May-13 11:30N 34°21' E 132°27'0 0.0
2018-May-13 11:00N 34°21' E 132°27'0 0.0
2018-May-13 10:31N 34°21' E 132°27'0 0.0
2018-May-13 10:00N 34°21' E 132°27'0 0.0
2018-May-13 09:30N 34°21' E 132°27'0 0.1
2018-May-13 09:00N 34°21' E 132°27'4 7.6
2018-May-13 08:30N 34°18' E 132°24'511.0
2018-May-13 08:00N 34°14' E 132°20'611.2
2018-May-13 07:30N 34°08' E 132°19'611.4
2018-May-13 07:00N 34°03' E 132°15'611.5
2018-May-13 06:29N 33°58' E 132°12'4 9.3
2018-May-13 06:00N 33°54' E 132°09'6 9.7
2018-May-13 05:24N 33°48' E 132°08'410.0
2018-May-13 05:00N 33°46' E 132°04'610.1
2018-May-13 04:22N 33°44' E 131°57'410.4
2018-May-13 04:00N 33°44' E 131°52'511.1
2018-May-13 03:30N 33°45' E 131°46'611.4
2018-May-13 03:00N 33°47' E 131°39'611.8
2018-May-13 02:30N 33°48' E 131°32'611.5
2018-May-13 02:00N 33°49' E 131°25'611.2
2018-May-13 01:31N 33°50' E 131°19'611.1
2018-May-13 01:00N 33°51' E 131°12'611.0
2018-May-13 00:31N 33°54' E 131°07'510.7
2018-May-13 00:00N 33°58' E 131°02'4 8.0
2018-May-12 23:30N 33°57' E 130°57'4 7.3
2018-May-12 23:00N 33°54' E 130°54'4 8.1
2018-May-12 22:31N 33°58' E 130°52'510.2
2018-May-12 22:00N 34°03' E 130°51'510.6
2018-May-12 21:30N 34°08' E 130°49'510.7
2018-May-12 21:00N 34°13' E 130°47'510.4
2018-May-12 20:30N 34°18' E 130°48'510.6
2018-May-12 20:00N 34°24' E 130°48'510.5
2018-May-12 19:29N 34°27' E 130°53'  
Track history (hours):
 
Tides and Currents Weather Stations Pressure Air Temp Water Temp Dewpoint Dewpoint Depression Visibility Wind Speed Wind Dir Waves Ship Positions

Seiyu Maru

Last reported at 2018-May-20 04:46 UTC. Time now 2018-May-20 15:26 UTC.
Position N 34°31' E 135°24'.

Length 75 m; draft 4.5 m.

Type: Cargo ship. MMSI: 431002433.

Date/timePositionNaut miles runAvg speedWind from/ knotsBaromVisibWave heightAir tempDewpointWater temp
2018-May-20 04:46N 34°31' E 135°24'0 1.6
2018-May-20 04:30N 34°31' E 135°23'4 9.0
2018-May-20 04:00N 34°33' E 135°19'510.6
2018-May-20 03:30N 34°34' E 135°12'510.5
2018-May-20 03:00N 34°35' E 135°06'5 9.4
2018-May-20 02:30N 34°37' E 135°01'7 8.9
2018-May-20 01:44N 34°35' E 134°53'2 9.5
2018-May-20 01:30N 34°34' E 134°51'1110.2
2018-May-20 00:22N 34°30' E 134°38'411.2
2018-May-20 00:00N 34°28' E 134°33'9 0.3
2018-May-18 11:39N 34°25' E 134°22'212.5
2018-May-18 11:30N 34°26' E 134°24'612.1
2018-May-18 11:00N 34°28' E 134°31'612.1
2018-May-18 10:30N 34°31' E 134°38'612.3
2018-May-18 10:00N 34°33' E 134°45'611.9
2018-May-18 09:30N 34°35' E 134°51'611.0
2018-May-18 08:59N 34°37' E 134°58'4 9.0
2018-May-18 08:30N 34°36' E 135°03'5 9.6
2018-May-18 08:00N 34°36' E 135°09'611.4
2018-May-18 07:30N 34°37' E 135°16'611.1
2018-May-18 07:00N 34°38' E 135°22'5 7.1
2018-May-18 06:22N 34°39' E 135°28'0 0.0
2018-May-18 06:00N 34°39' E 135°28'0 0.0
2018-May-18 05:26N 34°39' E 135°28'0 0.0
2018-May-18 04:56N 34°39' E 135°28'0 0.0
2018-May-18 04:26N 34°39' E 135°28'0 0.0
2018-May-18 03:50N 34°39' E 135°28'0 0.0
2018-May-18 03:14N 34°39' E 135°28'0 0.0
2018-May-18 02:56N 34°39' E 135°28'0 0.0
2018-May-18 02:08N 34°39' E 135°28'0 0.0
2018-May-18 01:56N 34°39' E 135°28'0 0.0
2018-May-18 01:26N 34°39' E 135°28'0 0.0
2018-May-18 00:50N 34°39' E 135°28'0 0.0
2018-May-18 00:20N 34°39' E 135°28'0 0.0
2018-May-17 23:47N 34°39' E 135°28'0 0.0
2018-May-17 23:28N 34°39' E 135°28'0 0.0
2018-May-17 23:00N 34°39' E 135°28'2 4.9
2018-May-17 22:30N 34°39' E 135°25'5 9.2
2018-May-17 22:00N 34°34' E 135°22'4 8.3
2018-May-17 21:30N 34°31' E 135°24'0 0.0
2018-May-16 01:37N 34°31' E 135°24'1 3.4
2018-May-16 01:20N 34°32' E 135°24'310.0
2018-May-16 01:00N 34°33' E 135°21'611.0
2018-May-16 00:30N 34°34' E 135°14'510.8
2018-May-16 00:00N 34°35' E 135°08'5 9.6
2018-May-15 23:30N 34°36' E 135°02'8 8.0
2018-May-15 22:27N 34°34' E 134°52'4 9.5
2018-May-15 22:00N 34°32' E 134°47'510.4
2018-May-15 21:30N 34°31' E 134°42'611.0
2018-May-15 21:00N 34°28' E 134°35'611.6
2018-May-15 20:30N 34°26' E 134°29'611.1
2018-May-15 19:58N 34°24' E 134°22'7711.1
2018-May-15 12:59N 34°07' E 132°51'612.7
2018-May-15 12:29N 34°02' E 132°46'613.5
2018-May-15 12:00N 33°57' E 132°42'913.1
2018-May-15 11:20N 33°51' E 132°34'512.3
2018-May-15 10:54N 33°48' E 132°28'612.5
2018-May-15 10:27N 33°45' E 132°22'712.3
2018-May-15 09:54N 33°43' E 132°14'512.1
2018-May-15 09:30N 33°42' E 132°09'611.1
2018-May-15 09:00N 33°42' E 132°02'910.5
2018-May-15 08:11N 33°44' E 131°52'210.5
2018-May-15 07:57N 33°45' E 131°49'510.5
2018-May-15 07:30N 33°46' E 131°44'510.6
2018-May-15 07:00N 33°47' E 131°38'510.9
2018-May-15 06:30N 33°48' E 131°31'611.2
2018-May-15 06:00N 33°49' E 131°25'611.4
2018-May-15 05:30N 33°50' E 131°18'611.7
2018-May-15 05:00N 33°52' E 131°11'612.0
2018-May-15 04:30N 33°55' E 131°05'611.7
2018-May-15 04:00N 33°58' E 130°59'611.4
2018-May-15 03:30N 33°54' E 130°55'3 5.3
2018-May-15 03:00N 33°55' E 130°52'0 0.0
2018-May-15 02:30N 33°55' E 130°52'0 0.0
2018-May-15 01:57N 33°55' E 130°52'0 0.0
2018-May-15 01:30N 33°55' E 130°52'0 0.0
2018-May-15 01:00N 33°55' E 130°52'0 0.0
2018-May-15 00:30N 33°55' E 130°52'1 1.8
2018-May-15 00:00N 33°55' E 130°53'1 1.8
2018-May-14 23:30N 33°56' E 130°54'0 0.0
2018-May-14 22:57N 33°56' E 130°54'0 0.1
2018-May-14 22:30N 33°56' E 130°53'0 0.0
2018-May-14 22:00N 33°56' E 130°53'0 0.1
2018-May-14 21:30N 33°56' E 130°53'0 0.1
2018-May-14 20:51N 33°56' E 130°54'0 0.0
2018-May-14 20:24N 33°56' E 130°54'0 0.0
2018-May-14 19:57N 33°56' E 130°54'0 0.1
2018-May-14 19:30N 33°56' E 130°54'0 0.1
2018-May-14 18:57N 33°56' E 130°54'0 0.0
2018-May-14 18:30N 33°56' E 130°54'0 0.0
2018-May-14 17:57N 33°56' E 130°54'0 0.0
2018-May-14 17:27N 33°56' E 130°54'0 0.0
2018-May-14 17:00N 33°56' E 130°54'0 0.0
2018-May-14 16:30N 33°56' E 130°54'0 0.0
2018-May-14 16:00N 33°56' E 130°54'0 0.0
2018-May-14 15:30N 33°56' E 130°54'0 0.0
2018-May-14 15:00N 33°56' E 130°54'0 0.0
2018-May-14 14:30N 33°56' E 130°54'0 0.0
2018-May-14 13:57N 33°56' E 130°54'0 0.0
2018-May-14 13:30N 33°56' E 130°54'0 0.1
2018-May-14 13:00N 33°56' E 130°54'0 0.0
2018-May-14 12:30N 33°56' E 130°54'0 0.0
2018-May-14 11:54N 33°56' E 130°54'2 4.2
2018-May-14 11:30N 33°54' E 130°55'612.7
2018-May-14 11:00N 33°59' E 131°00'611.8
2018-May-14 10:31N 33°55' E 131°06'611.7
2018-May-14 10:01N 33°52' E 131°12'611.4
2018-May-14 09:31N 33°51' E 131°19'611.3
2018-May-14 09:00N 33°50' E 131°26'611.3
2018-May-14 08:31N 33°49' E 131°32'711.5
2018-May-14 07:55N 33°48' E 131°40'511.6
2018-May-14 07:31N 33°47' E 131°46'611.5
2018-May-14 06:59N 33°46' E 131°53'23 9.4
2018-May-14 04:31N 34°01' E 132°14'111.1
2018-May-14 04:25N 34°02' E 132°15'511.0
2018-May-14 04:01N 34°06' E 132°17'611.2
2018-May-14 03:30N 34°11' E 132°20'611.4
2018-May-14 03:00N 34°17' E 132°21'5 9.5
2018-May-14 02:31N 34°20' E 132°26'2 3.4
2018-May-14 02:01N 34°21' E 132°27'0 0.0
2018-May-14 01:31N 34°21' E 132°27'0 0.1
2018-May-14 01:00N 34°21' E 132°27'0 0.1
2018-May-14 00:31N 34°21' E 132°27'0 0.0
2018-May-14 00:01N 34°21' E 132°27'0 0.0
2018-May-13 23:31N 34°21' E 132°27'0 0.0
2018-May-13 23:00N 34°21' E 132°27'0 0.0
2018-May-13 22:31N 34°21' E 132°27'0 0.0
2018-May-13 22:01N 34°21' E 132°27'0 0.0
2018-May-13 21:31N 34°21' E 132°27'0 0.0
2018-May-13 21:00N 34°21' E 132°27'0 0.0
2018-May-13 20:31N 34°21' E 132°27'0 0.0
2018-May-13 20:00N 34°21' E 132°27'0 0.0
2018-May-13 19:30N 34°21' E 132°27'0 0.0
2018-May-13 19:01N 34°21' E 132°27'0 0.0
2018-May-13 18:28N 34°21' E 132°27'0 0.0
2018-May-13 18:01N 34°21' E 132°27'0 0.0
2018-May-13 17:30N 34°21' E 132°27'0 0.0
2018-May-13 17:01N 34°21' E 132°27'0 0.0
2018-May-13 16:30N 34°21' E 132°27'0 0.0
2018-May-13 16:00N 34°21' E 132°27'0 0.0
2018-May-13 15:30N 34°21' E 132°27'0 0.0
2018-May-13 15:00N 34°21' E 132°27'0 0.0
2018-May-13 14:31N 34°21' E 132°27'0 0.0
2018-May-13 14:01N 34°21' E 132°27'0 0.0
2018-May-13 13:30N 34°21' E 132°27'0 0.0
2018-May-13 13:01N 34°21' E 132°27'0 0.0
2018-May-13 12:27N 34°21' E 132°27'0 0.0
2018-May-13 12:01N 34°21' E 132°27'0 0.0
2018-May-13 11:30N 34°21' E 132°27'0 0.0
2018-May-13 11:00N 34°21' E 132°27'0 0.0
2018-May-13 10:31N 34°21' E 132°27'0 0.0
2018-May-13 10:00N 34°21' E 132°27'0 0.0
2018-May-13 09:30N 34°21' E 132°27'0 0.1
2018-May-13 09:00N 34°21' E 132°27'4 7.6
2018-May-13 08:30N 34°18' E 132°24'511.0
2018-May-13 08:00N 34°14' E 132°20'611.2
2018-May-13 07:30N 34°08' E 132°19'611.4
2018-May-13 07:00N 34°03' E 132°15'611.5
2018-May-13 06:29N 33°58' E 132°12'4 9.3
2018-May-13 06:00N 33°54' E 132°09'6 9.7
2018-May-13 05:24N 33°48' E 132°08'410.0
2018-May-13 05:00N 33°46' E 132°04'610.1
2018-May-13 04:22N 33°44' E 131°57'410.4
2018-May-13 04:00N 33°44' E 131°52'511.1
2018-May-13 03:30N 33°45' E 131°46'611.4
2018-May-13 03:00N 33°47' E 131°39'611.8
2018-May-13 02:30N 33°48' E 131°32'611.5
2018-May-13 02:00N 33°49' E 131°25'611.2
2018-May-13 01:31N 33°50' E 131°19'611.1
2018-May-13 01:00N 33°51' E 131°12'611.0
2018-May-13 00:31N 33°54' E 131°07'510.7
2018-May-13 00:00N 33°58' E 131°02'4 8.0
2018-May-12 23:30N 33°57' E 130°57'4 7.3
2018-May-12 23:00N 33°54' E 130°54'4 8.1
2018-May-12 22:31N 33°58' E 130°52'510.2
2018-May-12 22:00N 34°03' E 130°51'510.6
2018-May-12 21:30N 34°08' E 130°49'510.7
2018-May-12 21:00N 34°13' E 130°47'510.4
2018-May-12 20:30N 34°18' E 130°48'510.6
2018-May-12 20:00N 34°24' E 130°48'510.5
2018-May-12 19:29N 34°27' E 130°53'  

Dump ship's entire track history